createdAt,value
2022-09-12T00:02:03.871Z,726.38
2022-09-12T00:04:30.667Z,782.60
2022-09-12T00:06:57.508Z,814.95
2022-09-12T00:09:24.263Z,843.90
2022-09-12T00:11:51.028Z,810.22
2022-09-12T00:14:18.883Z,808.70
2022-09-12T00:16:46.402Z,827.77
2022-09-12T00:19:13.647Z,771.33
2022-09-12T00:21:41.635Z,806.40
2022-09-12T00:24:09.487Z,831.63
2022-09-12T00:26:36.986Z,891.22
2022-09-12T00:29:04.401Z,887.65
2022-09-12T00:31:31.822Z,901.88
2022-09-12T00:34:00.739Z,906.70
2022-09-12T00:36:31.190Z,884.00
2022-09-12T00:38:58.555Z,857.03
2022-09-12T00:41:31.827Z,924.97
2022-09-12T00:44:00.526Z,955.17
2022-09-12T00:46:45.518Z,877.53
2022-09-12T00:49:15.220Z,999.90
2022-09-12T00:51:56.505Z,978.65
2022-09-12T00:54:27.136Z,997.00
2022-09-12T00:56:58.099Z,938.10
2022-09-12T00:59:30.318Z,959.85
2022-09-12T01:01:57.638Z,999.90
2022-09-12T01:04:26.540Z,994.72
2022-09-12T01:06:55.147Z,999.90
2022-09-12T01:09:23.194Z,999.90
2022-09-12T01:11:50.917Z,999.90
2022-09-12T01:14:18.504Z,999.90
2022-09-12T01:16:47.221Z,999.90
2022-09-12T01:19:41.087Z,999.90
2022-09-12T01:22:17.211Z,999.90
2022-09-12T01:25:18.832Z,999.90
2022-09-12T01:28:23.461Z,999.90
2022-09-12T01:30:52.094Z,999.90
2022-09-12T01:33:49.903Z,999.90
2022-09-12T01:36:38.137Z,999.90
2022-09-12T01:39:27.782Z,999.90
2022-09-12T01:42:31.165Z,999.90
2022-09-12T01:45:32.135Z,999.90
2022-09-12T01:48:14.874Z,999.90
2022-09-12T01:50:53.207Z,999.90
2022-09-12T01:53:47.933Z,999.90
2022-09-12T01:56:36.555Z,999.90
2022-09-12T01:59:17.999Z,999.90
2022-09-12T02:01:54.849Z,999.90
2022-09-12T02:04:34.892Z,999.90
2022-09-12T02:07:05.031Z,912.63
2022-09-12T02:09:45.288Z,782.85
2022-09-12T02:12:16.624Z,789.60
2022-09-12T02:14:49.420Z,696.53
2022-09-12T02:17:20.969Z,831.77
2022-09-12T02:20:06.990Z,707.00
2022-09-12T02:22:36.915Z,782.05
2022-09-12T02:25:07.437Z,748.10
2022-09-12T02:27:40.370Z,773.97
2022-09-12T02:30:08.541Z,829.93
2022-09-12T02:32:35.645Z,831.55
2022-09-12T02:35:11.224Z,705.10
2022-09-12T02:38:25.062Z,730.17
2022-09-12T02:40:52.317Z,989.47
2022-09-12T02:43:19.139Z,999.90
2022-09-12T02:45:46.306Z,958.40
2022-09-12T02:48:43.518Z,623.20
2022-09-12T02:51:11.722Z,901.22
2022-09-12T02:53:39.110Z,782.70
2022-09-12T02:56:10.994Z,751.50
2022-09-12T02:58:38.075Z,625.77
2022-09-12T03:01:44.157Z,688.67
2022-09-12T03:04:11.521Z,999.90
2022-09-12T03:06:56.000Z,789.53
2022-09-12T03:09:54.882Z,743.03
2022-09-12T03:12:53.844Z,748.30
2022-09-12T03:15:45.055Z,660.87
2022-09-12T03:18:30.496Z,713.70
2022-09-12T03:21:08.278Z,657.92
2022-09-12T03:23:58.923Z,768.08
2022-09-12T03:26:37.549Z,719.90
2022-09-12T03:29:07.115Z,749.70
2022-09-12T03:31:34.370Z,745.10
2022-09-12T03:34:01.173Z,711.72
2022-09-12T03:36:29.596Z,769.08
2022-09-12T03:38:57.082Z,804.20
2022-09-12T03:41:23.927Z,573.20
2022-09-12T03:43:50.572Z,679.63
2022-09-12T03:46:17.730Z,692.20
2022-09-12T03:48:44.899Z,868.30
2022-09-12T03:51:12.377Z,714.53
2022-09-12T03:53:40.120Z,920.40
2022-09-12T03:56:10.831Z,774.85
2022-09-12T03:58:38.579Z,732.17
2022-09-12T04:01:14.691Z,980.13
2022-09-12T04:03:42.646Z,999.90
2022-09-12T04:06:11.801Z,999.90
2022-09-12T04:08:38.810Z,827.47
2022-09-12T04:11:06.830Z,999.90
2022-09-12T04:13:35.206Z,999.90
2022-09-12T04:16:03.077Z,852.63
2022-09-12T04:18:30.322Z,891.05
2022-09-12T04:20:57.539Z,796.63
2022-09-12T04:23:24.687Z,825.70
2022-09-12T04:25:59.246Z,739.55
2022-09-12T04:28:27.002Z,714.47
2022-09-12T04:30:53.809Z,808.90
2022-09-12T04:33:21.538Z,856.60
2022-09-12T04:35:49.135Z,947.43
2022-09-12T04:38:16.277Z,999.90
2022-09-12T04:40:42.963Z,999.90
2022-09-12T04:43:14.222Z,999.63
2022-09-12T04:45:41.855Z,999.90
2022-09-12T04:48:08.641Z,999.90
2022-09-12T04:50:35.411Z,999.90
2022-09-12T04:53:02.203Z,898.03
2022-09-12T04:55:29.094Z,999.90
2022-09-12T04:57:56.217Z,999.90
2022-09-12T05:00:23.719Z,985.75
2022-09-12T05:02:50.483Z,999.90
2022-09-12T05:05:17.766Z,999.90
2022-09-12T05:07:45.074Z,999.90
2022-09-12T05:10:12.504Z,972.42
2022-09-12T05:12:39.248Z,914.35
2022-09-12T05:15:07.175Z,974.80
2022-09-12T05:17:34.346Z,970.30
2022-09-12T05:20:01.650Z,983.10
2022-09-12T05:22:28.859Z,941.92
2022-09-12T05:24:56.127Z,923.92
2022-09-12T05:27:23.279Z,916.47
2022-09-12T05:29:50.518Z,968.72
2022-09-12T05:32:17.668Z,927.63
2022-09-12T05:34:44.345Z,949.83
2022-09-12T05:37:11.521Z,968.10
2022-09-12T05:39:38.299Z,995.17
2022-09-12T05:42:06.049Z,939.80
2022-09-12T05:44:33.354Z,930.37
2022-09-12T05:47:00.437Z,963.70
2022-09-12T05:49:27.762Z,999.90
2022-09-12T05:51:55.078Z,972.43
2022-09-12T05:54:22.733Z,999.90
2022-09-12T05:56:49.465Z,942.25
2022-09-12T05:59:19.147Z,980.70
2022-09-12T06:01:46.694Z,999.90
2022-09-12T06:04:13.906Z,995.85
2022-09-12T06:06:48.616Z,999.90
2022-09-12T06:09:16.788Z,999.90
2022-09-12T06:11:44.796Z,995.28
2022-09-12T06:14:16.305Z,977.17
2022-09-12T06:16:43.501Z,916.63
2022-09-12T06:19:19.093Z,914.83
2022-09-12T06:21:47.511Z,999.90
2022-09-12T06:24:14.708Z,999.90
2022-09-12T06:26:41.930Z,999.90
2022-09-12T06:29:11.374Z,999.50
2022-09-12T06:31:40.455Z,999.10
2022-09-12T06:34:09.323Z,983.17
2022-09-12T06:36:54.210Z,991.15
2022-09-12T06:39:23.070Z,861.38
2022-09-12T06:41:52.030Z,773.70
2022-09-12T06:44:29.651Z,892.60
2022-09-12T06:46:56.404Z,818.67
2022-09-12T06:49:23.565Z,886.65
2022-09-12T06:51:50.713Z,926.80
2022-09-12T06:54:18.171Z,800.83
2022-09-12T06:56:44.911Z,857.20
2022-09-12T06:59:12.323Z,906.75
2022-09-12T07:01:40.210Z,999.53
2022-09-12T07:04:07.402Z,911.13
2022-09-12T07:06:44.785Z,924.15
2022-09-12T07:09:16.231Z,912.85
2022-09-12T07:11:43.684Z,949.10
2022-09-12T07:14:12.915Z,885.78
2022-09-12T07:16:40.123Z,849.72
2022-09-12T07:19:08.243Z,829.05
2022-09-12T07:21:40.235Z,895.03
2022-09-12T07:24:09.402Z,874.05
2022-09-12T07:26:36.527Z,958.83
2022-09-12T07:29:32.265Z,956.25
2022-09-12T07:31:50.606Z,914.30
2022-09-12T07:34:17.618Z,923.53
2022-09-12T07:36:44.467Z,954.73
2022-09-12T07:39:11.440Z,848.15
2022-09-12T07:41:38.658Z,840.53
2022-09-12T07:44:07.133Z,837.17
2022-09-12T07:46:34.905Z,795.03
2022-09-12T07:49:02.459Z,889.03
2022-09-12T07:51:30.464Z,988.72
2022-09-12T07:53:58.006Z,879.72
2022-09-12T07:56:29.659Z,978.60
2022-09-12T07:58:57.157Z,999.90
2022-09-12T08:01:24.679Z,991.87
2022-09-12T08:03:57.086Z,999.90
2022-09-12T08:06:25.058Z,840.85
2022-09-12T08:08:53.382Z,859.75
2022-09-12T08:11:21.789Z,802.40
2022-09-12T08:13:54.419Z,999.90
2022-09-12T08:16:24.468Z,999.90
2022-09-12T08:18:51.851Z,938.40
2022-09-12T08:21:21.423Z,999.90
2022-09-12T08:23:52.683Z,999.90
2022-09-12T08:26:19.803Z,999.90
2022-09-12T08:28:47.724Z,999.90
2022-09-12T08:31:16.572Z,999.90
2022-09-12T08:33:43.723Z,999.90
2022-09-12T08:36:11.010Z,999.90
2022-09-12T08:38:40.248Z,903.63
2022-09-12T08:41:15.212Z,908.03
2022-09-12T08:43:42.388Z,999.90
2022-09-12T08:46:15.335Z,999.90
2022-09-12T08:48:45.259Z,999.90
2022-09-12T08:51:14.783Z,999.90
2022-09-12T08:53:43.347Z,999.90
2022-09-12T08:56:11.730Z,999.90
2022-09-12T08:58:40.853Z,999.90
2022-09-12T09:01:20.506Z,999.90
2022-09-12T09:04:06.659Z,999.90
2022-09-12T09:06:59.866Z,999.90
2022-09-12T09:09:59.059Z,999.90
2022-09-12T09:12:41.150Z,999.90
2022-09-12T09:15:11.899Z,999.90
2022-09-12T09:17:41.602Z,999.90
2022-09-12T09:20:10.145Z,999.90
2022-09-12T09:22:37.334Z,999.90
2022-09-12T09:25:23.066Z,999.90
2022-09-12T09:27:50.340Z,999.90
2022-09-12T09:30:19.066Z,999.90
2022-09-12T09:32:51.269Z,999.90
2022-09-12T09:35:20.101Z,999.90
2022-09-12T09:38:01.859Z,999.90
2022-09-12T09:40:53.906Z,999.90
2022-09-12T09:43:28.884Z,999.90
2022-09-12T09:45:57.555Z,999.90
2022-09-12T09:48:47.122Z,999.90
2022-09-12T09:51:21.783Z,999.90
2022-09-12T09:53:53.166Z,999.90
2022-09-12T09:56:28.435Z,999.90
2022-09-12T09:58:56.073Z,999.90
2022-09-12T10:01:24.729Z,999.90
2022-09-12T10:03:55.566Z,999.90
2022-09-12T10:06:32.140Z,999.90
2022-09-12T10:09:27.034Z,999.90
2022-09-12T10:11:55.015Z,999.90
2022-09-12T10:14:40.381Z,999.90
2022-09-12T10:17:25.124Z,999.90
2022-09-12T10:20:04.846Z,999.90
2022-09-12T10:22:40.614Z,999.90
2022-09-12T10:25:12.374Z,999.90
2022-09-12T10:27:39.618Z,999.90
2022-09-12T10:30:18.026Z,999.90
2022-09-12T10:32:51.803Z,999.90
2022-09-12T10:35:20.714Z,999.90
2022-09-12T10:38:06.632Z,999.90
2022-09-12T10:40:40.703Z,999.90
2022-09-12T10:43:26.895Z,999.90
2022-09-12T10:45:58.410Z,999.90
2022-09-12T10:48:31.963Z,999.90
2022-09-12T10:51:00.443Z,999.90
2022-09-12T10:53:34.183Z,999.90
2022-09-12T10:56:14.335Z,999.90
2022-09-12T10:59:03.797Z,999.90
2022-09-12T11:01:34.117Z,999.90
2022-09-12T11:04:02.398Z,999.90
2022-09-12T11:06:42.867Z,999.90
2022-09-12T11:09:18.946Z,999.90
2022-09-12T11:11:52.151Z,999.90
2022-09-12T11:14:34.810Z,999.90
2022-09-12T11:17:13.654Z,999.90
2022-09-12T11:19:59.416Z,999.90
2022-09-12T11:22:42.059Z,999.90
2022-09-12T11:25:12.103Z,999.90
2022-09-12T11:27:39.225Z,999.90
2022-09-12T11:30:12.083Z,811.83
2022-09-12T11:33:01.585Z,836.17
2022-09-12T11:35:32.627Z,821.70
2022-09-12T11:38:38.871Z,826.47
2022-09-12T11:41:09.842Z,769.25
2022-09-12T11:44:00.922Z,801.65
2022-09-12T11:46:34.261Z,725.47
2022-09-12T11:49:12.303Z,619.80
2022-09-12T11:52:03.195Z,641.25
2022-09-12T11:54:42.890Z,594.80
2022-09-12T11:57:36.082Z,540.17
2022-09-12T12:00:18.492Z,496.27
2022-09-12T12:03:03.778Z,545.27
2022-09-12T12:05:43.133Z,583.78
2022-09-12T12:08:11.176Z,526.00
2022-09-12T12:10:44.429Z,537.13
2022-09-12T12:13:18.362Z,515.92
2022-09-12T12:15:54.949Z,511.90
2022-09-12T12:18:26.327Z,484.83
2022-09-12T12:20:54.726Z,513.85
2022-09-12T12:23:27.049Z,505.13
2022-09-12T12:25:55.926Z,467.17
2022-09-12T12:28:42.100Z,488.55
2022-09-12T12:31:11.048Z,497.00
2022-09-12T12:33:38.267Z,505.35
2022-09-12T12:36:09.550Z,539.92
2022-09-12T12:38:43.082Z,496.98
2022-09-12T12:41:19.307Z,402.65
2022-09-12T12:43:48.235Z,456.40
2022-09-12T12:46:16.333Z,475.67
2022-09-12T12:49:16.998Z,498.70
2022-09-12T12:52:01.408Z,524.38
2022-09-12T12:54:28.618Z,520.30
2022-09-12T12:57:17.454Z,510.35
2022-09-12T12:59:49.187Z,565.35
2022-09-12T13:02:41.345Z,593.05
2022-09-12T13:05:30.278Z,601.38
2022-09-12T13:08:05.351Z,596.15
2022-09-12T13:10:33.529Z,594.35
2022-09-12T13:13:05.195Z,595.75
2022-09-12T13:15:38.313Z,587.47
2022-09-12T13:18:13.471Z,566.30
2022-09-12T13:21:01.110Z,555.53
2022-09-12T13:23:32.672Z,566.63
2022-09-12T13:26:01.025Z,572.22
2022-09-12T13:28:31.604Z,567.35
2022-09-12T13:31:01.899Z,566.38
2022-09-12T13:33:42.839Z,586.97
2022-09-12T13:36:16.434Z,560.30
2022-09-12T13:38:43.586Z,603.58
2022-09-12T13:41:10.739Z,598.10
2022-09-12T13:43:42.041Z,594.97
2022-09-12T13:46:13.239Z,591.33
2022-09-12T13:48:41.294Z,607.33
2022-09-12T13:51:09.785Z,620.78
2022-09-12T13:53:42.501Z,715.80
2022-09-12T13:56:15.930Z,781.75
2022-09-12T13:58:51.895Z,731.67
2022-09-12T14:01:20.500Z,750.45
2022-09-12T14:04:14.122Z,942.70
2022-09-12T14:06:45.487Z,938.70
2022-09-12T14:09:29.766Z,882.25
2022-09-12T14:11:57.241Z,883.92
2022-09-12T14:14:33.488Z,896.10
2022-09-12T14:17:01.950Z,885.80
2022-09-12T14:19:29.395Z,903.90
2022-09-12T14:22:02.074Z,868.13
2022-09-12T14:24:29.621Z,873.67
2022-09-12T14:26:57.323Z,944.08
2022-09-12T14:29:25.202Z,957.53
2022-09-12T14:32:02.998Z,973.45
2022-09-12T14:34:31.037Z,999.90
2022-09-12T14:36:58.589Z,953.63
2022-09-12T14:39:32.060Z,903.00
2022-09-12T14:42:14.443Z,959.63
2022-09-12T14:44:42.961Z,929.17
2022-09-12T14:47:21.699Z,921.08
2022-09-12T14:49:51.579Z,926.83
2022-09-12T14:52:33.402Z,921.85
2022-09-12T14:55:20.006Z,937.38
2022-09-12T14:57:48.035Z,953.80
2022-09-12T15:00:20.236Z,991.80
2022-09-12T15:02:48.343Z,999.90
2022-09-12T15:05:17.155Z,997.57
2022-09-12T15:07:53.730Z,999.90
2022-09-12T15:10:26.868Z,985.65
2022-09-12T15:13:09.308Z,999.90
2022-09-12T15:15:37.557Z,993.42
2022-09-12T15:18:08.481Z,999.90
2022-09-12T15:20:39.390Z,999.90
2022-09-12T15:23:33.135Z,999.90
2022-09-12T15:26:03.641Z,997.58
2022-09-12T15:28:32.049Z,999.90
2022-09-12T15:31:03.496Z,999.90
2022-09-12T15:33:30.721Z,982.08
2022-09-12T15:35:57.914Z,950.50
2022-09-12T15:38:26.730Z,944.30
2022-09-12T15:40:54.694Z,925.78
2022-09-12T15:43:22.883Z,960.25
2022-09-12T15:45:52.153Z,999.90
2022-09-12T15:48:20.941Z,960.70
2022-09-12T15:50:48.599Z,959.72
2022-09-12T15:53:16.812Z,944.22
2022-09-12T15:55:45.726Z,964.25
2022-09-12T15:58:13.357Z,973.90
2022-09-12T16:00:41.744Z,958.42
2022-09-12T16:03:29.361Z,984.63
2022-09-12T16:06:00.991Z,950.07
2022-09-12T16:08:31.517Z,871.97
2022-09-12T16:11:07.323Z,791.07
2022-09-12T16:13:34.543Z,804.60
2022-09-12T16:16:01.873Z,783.17
2022-09-12T16:18:29.294Z,787.55
2022-09-12T16:20:58.061Z,781.00
2022-09-12T16:23:25.628Z,803.47
2022-09-12T16:26:05.022Z,816.33
2022-09-12T16:28:33.474Z,817.63
2022-09-12T16:31:01.728Z,821.55
2022-09-12T16:33:29.402Z,842.70
2022-09-12T16:36:06.039Z,899.58
2022-09-12T16:38:33.974Z,850.65
2022-09-12T16:41:06.588Z,863.35
2022-09-12T16:43:34.711Z,867.80
2022-09-12T16:46:06.209Z,847.40
2022-09-12T16:48:33.905Z,904.90
2022-09-12T16:51:02.118Z,881.80
2022-09-12T16:53:33.219Z,910.88
2022-09-12T16:56:00.326Z,918.83
2022-09-12T16:58:28.122Z,951.45
2022-09-12T17:01:03.718Z,960.13
2022-09-12T17:03:31.913Z,947.88
2022-09-12T17:06:07.602Z,931.67
2022-09-12T17:08:36.246Z,952.13
2022-09-12T17:11:06.028Z,929.73
2022-09-12T17:14:00.149Z,914.03
2022-09-12T17:16:20.978Z,884.05
2022-09-12T17:18:48.342Z,994.90
2022-09-12T17:21:16.057Z,999.90
2022-09-12T17:23:43.219Z,917.03
2022-09-12T17:26:10.923Z,924.55
2022-09-12T17:28:39.251Z,880.88
2022-09-12T17:31:12.136Z,875.92
2022-09-12T17:33:40.637Z,899.50
2022-09-12T17:36:11.009Z,886.03
2022-09-12T17:38:42.275Z,877.55
2022-09-12T17:41:11.454Z,882.73
2022-09-12T17:43:40.702Z,898.67
2022-09-12T17:46:08.255Z,897.60
2022-09-12T17:48:37.149Z,953.00
2022-09-12T17:51:13.528Z,905.10
2022-09-12T17:53:41.736Z,898.22
2022-09-12T17:56:09.338Z,887.15
2022-09-12T17:58:36.775Z,914.53
2022-09-12T18:01:23.877Z,903.60
2022-09-12T18:03:55.006Z,923.75
2022-09-12T18:06:23.709Z,897.37
2022-09-12T18:08:50.807Z,846.17
2022-09-12T18:11:18.326Z,862.45
2022-09-12T18:13:45.822Z,843.53
2022-09-12T18:16:13.852Z,780.08
2022-09-12T18:18:41.159Z,890.70
2022-09-12T18:21:10.958Z,879.65
2022-09-12T18:23:38.401Z,900.50
2022-09-12T18:26:10.857Z,851.17
2022-09-12T18:28:39.834Z,879.35
2022-09-12T18:31:12.779Z,916.67
2022-09-12T18:33:40.135Z,899.17
2022-09-12T18:36:08.830Z,893.80
2022-09-12T18:38:36.242Z,894.28
2022-09-12T18:41:18.465Z,863.70
2022-09-12T18:43:47.027Z,814.95
2022-09-12T18:46:19.437Z,815.80
2022-09-12T18:48:47.189Z,819.10
2022-09-12T18:51:20.010Z,773.45
2022-09-12T18:53:52.843Z,754.78
2022-09-12T18:56:20.382Z,770.50
2022-09-12T18:58:52.197Z,747.45
2022-09-12T19:01:24.925Z,780.08
2022-09-12T19:03:53.890Z,773.35
2022-09-12T19:06:26.019Z,762.97
2022-09-12T19:08:55.573Z,764.20
2022-09-12T19:11:23.973Z,756.05
2022-09-12T19:13:53.096Z,764.28
2022-09-12T19:16:21.961Z,756.38
2022-09-12T19:18:49.773Z,735.03
2022-09-12T19:21:28.641Z,752.45
2022-09-12T19:24:04.673Z,727.28
2022-09-12T19:26:32.233Z,762.75
2022-09-12T19:29:00.879Z,756.88
2022-09-12T19:31:28.184Z,760.38
2022-09-12T19:34:00.049Z,514.17
2022-09-12T19:36:44.471Z,449.83
2022-09-12T19:39:13.384Z,731.10
2022-09-12T19:41:41.561Z,760.50
2022-09-12T19:44:09.048Z,711.28
2022-09-12T19:46:36.280Z,792.63
2022-09-12T19:49:03.874Z,815.05
2022-09-12T19:51:31.438Z,728.55
2022-09-12T19:53:59.701Z,608.10
2022-09-12T19:56:26.818Z,642.95
2022-09-12T19:58:56.595Z,802.87
2022-09-12T20:01:28.460Z,778.10
2022-09-12T20:03:58.373Z,815.05
2022-09-12T20:06:26.694Z,773.75
2022-09-12T20:08:55.190Z,842.63
2022-09-12T20:11:24.054Z,868.35
2022-09-12T20:13:51.661Z,847.15
2022-09-12T20:16:29.492Z,921.42
2022-09-12T20:19:08.248Z,879.65
2022-09-12T20:21:36.030Z,889.45
2022-09-12T20:24:07.703Z,868.17
2022-09-12T20:26:35.223Z,880.08
2022-09-12T20:29:02.749Z,833.75
2022-09-12T20:31:30.463Z,813.92
2022-09-12T20:33:58.045Z,737.78
2022-09-12T20:36:25.275Z,818.95
2022-09-12T20:38:53.483Z,851.70
2022-09-12T20:41:22.446Z,821.75
2022-09-12T20:43:51.192Z,858.73
2022-09-12T20:46:22.001Z,836.92
2022-09-12T20:48:50.089Z,772.33
2022-09-12T20:51:17.731Z,827.43
2022-09-12T20:53:45.332Z,743.07
2022-09-12T20:56:12.492Z,854.87
2022-09-12T20:58:43.791Z,824.78
2022-09-12T21:01:12.443Z,920.60
2022-09-12T21:03:40.179Z,947.92
2022-09-12T21:06:08.157Z,881.78
2022-09-12T21:08:36.146Z,878.10
2022-09-12T21:11:03.473Z,831.22
2022-09-12T21:13:30.715Z,809.50
2022-09-12T21:16:01.603Z,835.53
2022-09-12T21:18:32.065Z,837.10
2022-09-12T21:20:59.727Z,830.17
2022-09-12T21:23:27.258Z,860.77
2022-09-12T21:25:54.478Z,918.73
2022-09-12T21:28:22.069Z,870.92
2022-09-12T21:30:49.772Z,901.25
2022-09-12T21:33:19.070Z,896.40
2022-09-12T21:35:47.376Z,937.35
2022-09-12T21:38:18.601Z,905.95
2022-09-12T21:40:46.125Z,956.30
2022-09-12T21:43:13.695Z,997.90
2022-09-12T21:45:40.841Z,795.70
2022-09-12T21:48:08.003Z,886.50
2022-09-12T21:50:35.187Z,820.50
2022-09-12T21:53:02.516Z,832.58
2022-09-12T21:55:29.717Z,939.45
2022-09-12T21:57:56.926Z,993.77
2022-09-12T22:00:24.174Z,934.08
2022-09-12T22:02:51.299Z,999.90
2022-09-12T22:05:19.509Z,983.38
2022-09-12T22:07:47.092Z,995.00
2022-09-12T22:10:15.136Z,949.53
2022-09-12T22:12:46.221Z,858.40
2022-09-12T22:15:38.838Z,890.60
2022-09-12T22:18:00.796Z,962.70
2022-09-12T22:20:28.027Z,952.08
2022-09-12T22:23:14.305Z,967.50
2022-09-12T22:25:41.505Z,923.53
2022-09-12T22:28:10.597Z,996.50
2022-09-12T22:30:38.555Z,938.00
2022-09-12T22:33:05.402Z,888.00
2022-09-12T22:35:32.747Z,906.67
2022-09-12T22:37:59.972Z,910.22
2022-09-12T22:40:27.255Z,935.58
2022-09-12T22:42:54.928Z,873.03
2022-09-12T22:45:22.095Z,835.33
2022-09-12T22:47:49.266Z,890.35
2022-09-12T22:50:16.539Z,895.35
2022-09-12T22:52:44.320Z,913.77
2022-09-12T22:55:11.588Z,901.20
2022-09-12T22:57:39.570Z,929.53
2022-09-12T23:00:10.309Z,919.38
2022-09-12T23:02:38.055Z,934.05
2022-09-12T23:05:05.795Z,738.75
2022-09-12T23:07:33.442Z,748.70
2022-09-12T23:10:00.566Z,741.88
2022-09-12T23:12:27.761Z,729.13
2022-09-12T23:14:54.952Z,734.23
2022-09-12T23:17:22.142Z,778.67
2022-09-12T23:19:49.324Z,823.53
2022-09-12T23:22:16.535Z,808.08
2022-09-12T23:24:43.818Z,787.95
2022-09-12T23:27:11.082Z,799.97
2022-09-12T23:29:38.263Z,753.45
2022-09-12T23:32:05.507Z,779.75
2022-09-12T23:34:33.512Z,826.88
2022-09-12T23:37:00.631Z,751.03
2022-09-12T23:39:27.987Z,823.92
2022-09-12T23:41:55.509Z,737.70
2022-09-12T23:44:22.592Z,676.60
2022-09-12T23:46:49.937Z,688.67
2022-09-12T23:49:17.124Z,715.70
2022-09-12T23:51:44.899Z,704.75
2022-09-12T23:54:12.001Z,752.40
2022-09-12T23:56:39.330Z,764.55
2022-09-12T23:59:06.650Z,774.08
